Time;durP1;ratioP1;P1;durP2;ratioP2;P2;SDS_P1;SDS_P2;PMS_P1;PMS_P2;Temp;Humidity;BMP_temperature;BMP_pressure;BME280_temperature;BME280_humidity;BME280_pressure;Samples;Min_cycle;Max_cycle;Signal;HPM_P1;HPM_P2
2022/08/29 00:00:17;;;;;;;2.30;2.20;;;20.00;99.90;;;20.43;62.21;102143.66;4824482;29;20058;-71
2022/08/29 00:02:48;;;;;;;2.42;2.33;;;20.10;99.90;;;19.61;62.51;102023.78;4824185;29;20042;-70
2022/08/29 00:05:19;;;;;;;;;;;20.00;99.90;;;20.35;62.20;102134.88;4824867;29;20122;-70
2022/08/29 00:07:52;;;;;;;2.80;2.70;;;20.00;99.90;;;20.34;62.93;102131.28;4824531;29;19924;-71
2022/08/29 00:10:22;;;;;;;2.13;2.03;;;20.00;99.90;;;20.18;62.87;102124.53;4824102;29;20125;-70
2022/08/29 00:12:50;;;;;;;2.53;2.42;;;19.90;99.90;;;20.23;62.91;102137.84;4824055;29;20046;-70
2022/08/29 00:15:20;;;;;;;2.50;2.40;;;19.80;99.90;;;20.24;62.55;102140.53;4824465;29;20050;-70
2022/08/29 00:17:48;;;;;;;2.40;2.30;;;19.90;99.90;;;20.21;62.57;102135.22;4824164;29;20073;-70
2022/08/29 00:20:25;;;;;;;2.65;2.55;;;19.90;99.90;;;20.28;62.45;102136.84;4823905;29;20050;-70
2022/08/29 00:23:02;;;;;;;2.30;2.20;;;19.90;99.90;;;20.28;62.27;102134.16;4822994;29;20065;-70
2022/08/29 00:25:31;;;;;;;2.65;2.55;;;19.90;99.90;;;20.28;62.44;102142.22;4824168;29;20050;-70
2022/08/29 00:28:00;;;;;;;2.47;2.38;;;19.90;99.90;;;20.30;62.22;102143.06;4824116;29;20405;-71
2022/08/29 00:30:28;;;;;;;2.70;2.60;;;20.00;99.90;;;20.37;61.58;102136.63;4824144;29;20424;-70
2022/08/29 00:32:56;;;;;;;2.70;2.60;;;20.00;99.90;;;20.43;61.67;102130.19;4823895;29;20087;-71
2022/08/29 00:35:30;;;;;;;2.30;2.20;;;20.10;99.90;;;20.46;61.17;102131.00;4823815;29;20129;-71
2022/08/29 00:37:59;;;;;;;2.67;2.58;;;20.10;99.90;;;20.43;60.95;102128.41;4823156;29;20104;-71
2022/08/29 00:40:31;;;;;;;2.72;2.63;;;20.10;99.90;;;20.43;60.70;102124.81;4824248;29;20472;-71
2022/08/29 00:43:01;;;;;;;2.50;2.40;;;20.10;99.90;;;20.40;60.60;102128.47;4824107;29;20122;-70
2022/08/29 00:45:30;;;;;;;2.47;2.38;;;20.10;99.90;;;20.39;60.48;102133.88;4823753;29;20043;-70
2022/08/29 00:48:03;;;;;;;2.30;2.20;;;20.10;99.90;;;20.32;60.38;102137.66;4823735;29;20138;-71
2022/08/29 00:50:37;;;;;;;2.33;2.22;;;20.00;99.90;;;20.35;60.45;102138.47;4823087;29;20104;-71
2022/08/29 00:53:12;;;;;;;2.50;2.40;;;20.00;99.90;;;20.33;60.72;102142.09;4824288;29;20050;-71
2022/08/29 00:55:41;;;;;;;2.30;2.20;;;20.00;99.90;;;20.31;60.48;102144.81;4823981;29;20111;-71
2022/08/29 00:58:25;;;;;;;2.50;2.40;;;19.90;99.90;;;20.28;60.44;102139.53;4823697;29;20050;-70
2022/08/29 01:00:54;;;;;;;2.38;2.28;;;19.90;99.90;;;20.24;60.66;102145.91;4823699;29;20095;-70
2022/08/29 01:03:22;;;;;;;2.50;2.40;;;19.90;99.90;;;20.15;61.19;102140.69;4822576;29;20049;-71
2022/08/29 01:05:52;;;;;;;2.30;2.20;;;19.80;99.90;;;20.14;61.07;102144.31;4823579;29;20063;-71
2022/08/29 01:08:20;;;;;;;2.33;2.23;;;19.80;99.90;;;20.13;60.87;102142.53;4824164;29;20121;-71
2022/08/29 01:13:41;;;;;;;2.58;2.47;;;19.70;99.90;;;20.24;60.83;102142.31;4823791;29;20050;-70
2022/08/29 01:16:12;;;;;;;2.38;2.28;;;19.80;99.90;;;20.20;61.17;102136.16;4823873;29;20078;-70
2022/08/29 01:18:46;;;;;;;2.40;2.30;;;19.90;99.90;;;20.16;61.51;102136.22;4823439;29;20050;-71
2022/08/29 01:21:22;;;;;;;2.38;2.28;;;19.80;99.90;;;20.10;61.30;102142.63;4824129;29;20070;-70
2022/08/29 01:24:01;;;;;;;2.45;2.35;;;19.70;99.90;;;20.13;61.14;102138.97;4823513;29;20051;-70
2022/08/29 01:26:32;;;;;;;2.47;2.38;;;19.80;99.90;;;19.95;62.38;102142.97;4823697;29;20053;-70
2022/08/29 01:29:00;;;;;;;2.20;2.10;;;19.60;99.90;;;19.77;63.86;102138.00;4823273;29;20051;-70
2022/08/29 01:31:38;;;;;;;2.75;2.65;;;19.40;99.90;;;19.28;63.80;102138.09;4823307;29;20133;-71
2022/08/29 01:34:26;;;;;;;2.53;2.42;;;19.10;99.90;;;18.97;65.05;102144.09;4823327;29;20050;-70
2022/08/29 01:36:58;;;;;;;2.50;2.40;;;18.70;99.90;;;18.83;65.59;102144.34;4823450;29;20050;-71
2022/08/29 01:39:30;;;;;;;2.47;2.38;;;18.60;99.90;;;18.50;66.37;102142.25;4823520;29;20059;-70
2022/08/29 01:42:09;;;;;;;2.40;2.30;;;18.20;99.90;;;18.32;68.09;102139.81;4823318;29;20115;-70
2022/08/29 01:44:40;;;;;;;2.80;2.70;;;17.90;99.90;;;18.13;69.12;102133.88;4822176;29;20050;-70
2022/08/29 01:47:10;;;;;;;2.47;2.38;;;17.70;99.90;;;17.62;68.98;102038.25;4823700;29;20120;-70
2022/08/29 01:49:38;;;;;;;2.45;2.35;;;17.70;99.90;;;18.28;68.99;102133.63;4823210;29;20058;-70
2022/08/29 01:52:08;;;;;;;2.55;2.45;;;17.80;99.90;;;18.44;68.64;102135.19;4823756;29;20149;-71
2022/08/29 01:54:37;;;;;;;2.55;2.45;;;18.00;99.90;;;18.59;68.26;102145.66;4826902;29;20042;-70
2022/08/29 01:57:08;;;;;;;2.40;2.30;;;18.20;99.90;;;18.55;68.62;102145.72;4825196;29;20577;-70
2022/08/29 01:59:41;;;;;;;2.40;2.30;;;18.20;99.90;;;18.59;68.39;102139.41;4825073;29;20114;-71
2022/08/29 02:02:16;;;;;;;2.60;2.50;;;18.30;99.90;;;18.55;68.13;102124.28;4826512;29;20141;-71
2022/08/29 02:04:46;;;;;;;2.38;2.28;;;18.30;99.90;;;18.62;68.14;102142.06;4826136;29;20092;-70
2022/08/29 02:07:17;;;;;;;2.60;2.50;;;18.30;99.90;;;18.53;68.14;102136.81;4825984;29;20417;-70
2022/08/29 02:09:46;;;;;;;2.40;2.30;;;18.20;99.90;;;18.61;68.24;102134.91;4826213;29;20155;-70
2022/08/29 02:12:19;;;;;;;2.55;2.45;;;18.30;99.90;;;18.59;68.76;102129.56;4826485;29;20056;-70
2022/08/29 02:14:49;;;;;;;2.70;2.60;;;18.20;99.90;;;18.73;70.22;102132.03;4825920;29;20111;-70
2022/08/29 02:17:18;;;;;;;2.85;2.75;;;18.30;99.90;;;18.71;70.55;102134.72;4826441;29;20054;-70
2022/08/29 02:19:46;;;;;;;2.50;2.40;;;18.40;99.90;;;18.83;70.87;102133.63;4825863;29;20077;-72
2022/08/29 02:22:15;;;;;;;2.85;2.75;;;18.40;99.90;;;18.73;71.25;102129.34;4825995;29;20119;-70
2022/08/29 02:24:43;;;;;;;2.72;2.63;;;18.40;99.90;;;18.60;71.28;102120.59;4825753;29;20038;-70
2022/08/29 02:27:12;;;;;;;2.60;2.50;;;18.30;99.90;;;18.49;70.42;102127.97;4825905;29;20132;-70
2022/08/29 02:29:42;;;;;;;2.72;2.63;;;18.20;99.90;;;18.47;70.25;102129.78;4825547;29;20125;-70
2022/08/29 02:32:13;;;;;;;2.43;2.33;;;18.10;99.90;;;18.43;70.25;102130.75;4825694;29;20057;-70
2022/08/29 02:34:42;;;;;;;2.60;2.50;;;18.10;99.90;;;18.40;70.33;102119.16;4825603;29;20058;-70
2022/08/29 02:37:15;;;;;;;2.50;2.40;;;18.10;99.90;;;18.58;71.38;102126.94;4825887;29;20106;-70
2022/08/29 02:39:43;;;;;;;2.40;2.30;;;18.10;99.90;;;18.57;71.88;102123.34;4825533;29;20117;-70
2022/08/29 02:42:12;;;;;;;2.25;2.15;;;18.20;99.90;;;18.49;71.46;102127.06;4824378;29;20093;-70
2022/08/29 02:44:41;;;;;;;2.60;2.50;;;18.10;99.90;;;18.46;71.38;102117.31;4825372;29;20141;-71
2022/08/29 02:47:10;;;;;;;2.73;2.63;;;18.10;99.90;;;18.43;72.12;102127.16;4825377;29;20409;-70
2022/08/29 02:49:38;;;;;;;2.78;2.67;;;18.10;99.90;;;18.39;72.31;102120.09;4825194;29;20314;-70
2022/08/29 02:52:07;;;;;;;3.00;2.90;;;18.00;99.90;;;18.42;72.47;102126.31;4825217;29;20049;-70
2022/08/29 02:54:36;;;;;;;2.60;2.50;;;18.00;99.90;;;18.38;72.61;102127.22;4825485;29;20046;-70
2022/08/29 02:57:05;;;;;;;2.35;2.25;;;18.00;99.90;;;18.38;72.02;102124.53;4825267;29;20130;-70
2022/08/29 02:59:34;;;;;;;2.80;2.70;;;18.00;99.90;;;18.37;71.64;102128.13;4825377;29;20431;-70
2022/08/29 03:02:04;;;;;;;2.60;2.50;;;18.00;99.90;;;18.35;71.29;102132.63;4825134;29;20076;-70
2022/08/29 03:04:32;;;;;;;2.60;2.50;;;18.00;99.90;;;18.39;70.81;102120.94;4824751;29;20066;-70
2022/08/29 03:07:01;;;;;;;2.88;2.78;;;18.00;99.90;;;18.42;70.68;102128.06;4825311;29;20137;-70
2022/08/29 03:09:29;;;;;;;2.42;2.33;;;18.00;99.90;;;18.48;70.20;102123.53;4824883;29;20082;-70
2022/08/29 03:11:57;;;;;;;2.60;2.50;;;18.00;99.90;;;18.45;70.10;102123.56;4824942;29;20040;-70
2022/08/29 03:14:26;;;;;;;2.40;2.30;;;18.10;99.90;;;18.38;69.99;102102.22;4824789;29;20066;-70
2022/08/29 03:16:54;;;;;;;2.60;2.50;;;18.10;99.90;;;18.53;69.83;102116.28;4825614;29;20039;-70
2022/08/29 03:19:24;;;;;;;2.53;2.42;;;18.10;99.90;;;18.58;69.57;102122.44;4825124;29;20077;-70
2022/08/29 03:21:53;;;;;;;2.40;2.30;;;18.20;99.90;;;18.47;69.48;102097.63;4824907;29;20046;-70
2022/08/29 03:24:21;;;;;;;2.40;2.30;;;18.20;99.90;;;18.75;68.73;102124.84;4824749;29;20420;-71
2022/08/29 03:26:55;;;;;;;2.30;2.20;;;18.30;99.90;;;18.84;68.66;102124.66;4825060;29;20477;-70
2022/08/29 03:29:26;;;;;;;2.40;2.30;;;18.40;99.90;;;18.60;68.58;102128.66;4824918;29;20137;-71
2022/08/29 03:31:57;;;;;;;2.33;2.22;;;18.30;99.90;;;18.42;69.39;102106.63;4824892;29;20130;-70
2022/08/29 03:34:28;;;;;;;2.53;2.42;;;18.10;99.90;;;18.24;70.93;102105.13;4824719;29;20103;-70
2022/08/29 03:36:56;;;;;;;2.53;2.42;;;17.90;99.90;;;18.13;70.54;102106.22;4824674;29;20138;-71
2022/08/29 03:39:25;;;;;;;2.80;2.70;;;17.80;99.90;;;17.94;70.48;102105.63;4823390;29;20093;-70
2022/08/29 03:41:54;;;;;;;2.55;2.45;;;17.70;99.90;;;17.78;70.03;102104.06;4824811;29;20100;-70
2022/08/29 03:44:23;;;;;;;2.47;2.38;;;17.50;99.90;;;17.75;70.43;102098.75;4824491;29;20054;-70
2022/08/29 03:46:51;;;;;;;2.63;2.53;;;17.40;99.90;;;17.73;70.87;102096.06;4824623;29;20074;-70
2022/08/29 03:49:19;;;;;;;2.40;2.30;;;17.40;99.90;;;17.74;71.38;102097.88;4824912;29;20057;-70
2022/08/29 03:51:49;;;;;;;2.67;2.58;;;17.30;99.90;;;17.70;71.53;102092.56;4824471;29;20043;-70
2022/08/29 03:54:18;;;;;;;2.63;2.53;;;17.30;99.90;;;17.60;71.82;102090.91;4824856;29;20081;-70
2022/08/29 03:56:47;;;;;;;2.65;2.55;;;17.20;99.90;;;17.48;72.10;102072.34;4824978;29;20050;-70
2022/08/29 03:59:16;;;;;;;2.63;2.53;;;17.20;99.90;;;17.60;72.48;102090.91;4824440;29;20511;-70
2022/08/29 04:01:46;;;;;;;2.50;2.40;;;17.20;99.90;;;17.52;72.08;102091.03;4824958;29;20046;-70
2022/08/29 04:05:05;;;;;;;2.50;2.40;;;17.20;99.90;;;17.29;71.72;102093.06;4824641;29;20111;-70
2022/08/29 04:07:07;;;;;;;2.70;2.60;;;17.00;99.90;;;17.19;72.49;102082.53;4824598;29;20078;-70
2022/08/29 04:09:37;;;;;;;2.53;2.42;;;16.90;99.90;;;17.18;72.68;102095.00;4824847;29;20405;-74
2022/08/29 04:12:06;;;;;;;2.58;2.47;;;16.80;99.90;;;17.13;72.55;102080.78;4824308;29;20555;-72
2022/08/29 04:14:34;;;;;;;2.75;2.65;;;16.80;99.90;;;17.10;72.83;102089.75;4824084;29;20150;-73
2022/08/29 04:17:03;;;;;;;2.40;2.30;;;16.70;99.90;;;17.01;72.40;102081.81;4822707;29;20472;-73
2022/08/29 04:19:34;;;;;;;2.58;2.47;;;16.70;99.90;;;16.96;72.27;102070.28;4823114;29;20482;-77
2022/08/29 04:22:02;;;;;;;2.50;2.40;;;16.70;99.90;;;17.12;72.37;102093.28;4824386;29;20046;-72
2022/08/29 04:24:33;;;;;;;2.63;2.53;;;16.80;99.90;;;17.17;72.69;102102.13;4824071;29;20061;-70
2022/08/29 04:27:02;;;;;;;2.50;2.40;;;16.80;99.90;;;17.21;72.66;102102.13;4824046;29;20046;-70
2022/08/29 04:29:33;;;;;;;2.65;2.55;;;16.80;99.90;;;17.07;72.93;102105.81;4823974;29;20053;-70
2022/08/29 04:32:01;;;;;;;2.60;2.50;;;16.80;99.90;;;17.06;73.43;102108.50;4823940;29;20069;-70
2022/08/29 04:34:30;;;;;;;2.83;2.72;;;16.70;99.90;;;17.07;73.45;102107.63;4824724;29;20129;-71
2022/08/29 04:37:00;;;;;;;2.73;2.63;;;16.70;99.90;;;17.14;73.48;102117.34;4824401;29;20073;-70
2022/08/29 04:39:28;;;;;;;2.78;2.67;;;16.80;99.90;;;17.17;73.65;102118.19;4822846;29;20661;-71
2022/08/29 04:41:58;;;;;;;2.97;2.88;;;16.90;99.90;;;17.21;73.73;102110.13;4824060;29;20052;-71
2022/08/29 04:44:26;;;;;;;2.50;2.40;;;16.90;99.90;;;17.24;73.75;102115.44;4823816;29;20077;-70
2022/08/29 04:46:54;;;;;;;2.70;2.60;;;16.90;99.90;;;17.26;73.56;102108.28;4823711;29;20056;-70
2022/08/29 04:49:23;;;;;;;3.65;3.45;;;17.00;99.90;;;17.35;73.40;102121.53;4823583;29;20042;-70
2022/08/29 04:51:53;;;;;;;3.03;2.92;;;17.10;99.90;;;17.37;73.67;102125.06;4823927;29;20043;-70
2022/08/29 04:54:22;;;;;;;2.72;2.63;;;17.10;99.90;;;17.39;73.81;102132.19;4823900;29;20046;-70
2022/08/29 04:56:50;;;;;;;2.65;2.55;;;17.10;99.90;;;17.40;73.75;102127.72;4824261;29;20130;-71
2022/08/29 04:59:25;;;;;;;2.78;2.67;;;17.10;99.90;;;16.74;73.73;102012.63;4823613;29;20080;-70
2022/08/29 05:01:55;;;;;;;2.70;2.60;;;17.10;99.90;;;17.38;73.65;102116.16;4823901;29;20055;-70
2022/08/29 05:04:24;;;;;;;2.70;2.60;;;17.10;99.90;;;17.39;74.07;102126.84;4823266;29;20049;-70
2022/08/29 05:06:52;;;;;;;2.70;2.60;;;17.10;99.90;;;17.32;74.60;102130.50;4823570;29;20137;-70
2022/08/29 05:09:22;;;;;;;2.50;2.40;;;17.10;99.90;;;17.55;75.02;102132.91;4823543;29;20046;-70
2022/08/29 05:11:50;;;;;;;2.42;2.33;;;17.20;99.90;;;17.58;74.75;102133.75;4823451;29;20078;-70
2022/08/29 05:14:18;;;;;;;2.70;2.60;;;17.20;99.90;;;17.64;74.28;102136.34;4823622;29;20101;-70
2022/08/29 05:16:48;;;;;;;2.50;2.40;;;17.20;99.90;;;17.64;74.20;102135.47;4823351;29;20054;-70
2022/08/29 05:19:16;;;;;;;2.95;2.85;;;17.30;99.90;;;17.69;74.28;102133.63;4823405;29;20046;-70
2022/08/29 05:21:45;;;;;;;2.45;2.35;;;17.30;99.90;;;17.75;74.45;102136.22;4823255;29;20043;-70
2022/08/29 05:24:16;;;;;;;2.45;2.35;;;17.40;99.90;;;17.73;75.17;102130.00;4823383;29;20106;-71
2022/08/29 05:26:45;;;;;;;2.45;2.35;;;17.40;99.90;;;17.78;74.94;102158.47;4824634;29;20061;-71
2022/08/29 05:29:14;;;;;;;2.70;2.60;;;17.40;99.90;;;17.88;74.90;102143.19;4827121;29;20073;-71
2022/08/29 05:31:43;;;;;;;3.10;3.00;;;17.50;99.90;;;17.88;74.75;102137.81;4826457;29;20051;-71
2022/08/29 05:34:14;;;;;;;2.55;2.45;;;17.50;99.90;;;17.92;74.29;102144.91;4825577;29;20501;-71
2022/08/29 05:37:04;;;;;;;2.30;2.20;;;17.50;99.90;;;17.98;74.66;102139.47;4826495;29;20042;-71
2022/08/29 05:39:33;;;;;;;;;;;17.60;99.90;;;18.08;75.00;102143.75;4826942;29;20073;-81
2022/08/29 05:42:02;;;;;;;2.58;2.47;;;17.70;99.90;;;18.16;74.71;102149.88;4825353;29;19929;-81
2022/08/29 05:44:32;;;;;;;2.28;2.17;;;17.80;99.90;;;18.24;74.87;102147.09;4826519;29;20052;-81
2022/08/29 05:47:04;;;;;;;2.30;2.20;;;17.80;99.90;;;18.25;74.18;102144.41;4826447;29;20057;-78
2022/08/29 05:49:36;;;;;;;2.42;2.33;;;17.90;99.90;;;18.38;73.68;102154.03;4826548;29;20116;-79
2022/08/29 05:52:06;;;;;;;2.65;2.55;;;17.90;99.90;;;18.50;73.30;102159.22;4825291;29;20443;-80
2022/08/29 05:54:38;;;;;;;2.72;2.63;;;18.10;99.90;;;18.60;72.69;102152.78;4826102;29;20062;-81
2022/08/29 05:57:08;;;;;;;2.50;2.40;;;18.20;99.90;;;18.64;72.32;102156.31;4825190;29;20477;-79
2022/08/29 05:59:38;;;;;;;2.50;2.40;;;18.20;99.90;;;18.67;72.18;102157.16;4826807;29;20054;-76
2022/08/29 06:02:08;;;;;;;2.70;2.60;;;18.30;99.90;;;18.77;72.08;102158.75;4826305;29;20061;-76
2022/08/29 06:04:39;;;;;;;2.40;2.30;;;18.40;99.90;;;18.89;71.79;102150.47;4826474;29;20111;-79
2022/08/29 06:07:08;;;;;;;;;;;18.50;99.90;;;19.03;71.46;102150.22;4826749;29;20069;-79
2022/08/29 06:09:40;;;;;;;2.33;2.22;;;18.60;99.90;;;19.14;71.26;102152.72;4824917;29;20266;-80
2022/08/29 06:12:10;;;;;;;2.45;2.35;;;18.80;99.90;;;18.82;70.94;102091.63;4826212;29;20138;-82
2022/08/29 06:14:39;;;;;;;2.30;2.20;;;18.80;99.90;;;19.18;70.36;102143.69;4826225;29;20042;-82
2022/08/29 06:17:08;;;;;;;2.40;2.30;;;19.00;99.90;;;19.36;69.91;102152.28;4825917;29;20054;-82
2022/08/29 06:19:38;;;;;;;2.30;2.20;;;19.00;99.90;;;19.47;69.34;102152.09;4825872;29;20070;-82
2022/08/29 06:22:09;;;;;;;5.00;4.60;;;19.10;99.90;;;19.58;68.79;102164.38;4825763;29;20523;-83
2022/08/29 06:24:38;;;;;;;;;;;19.20;99.90;;;19.66;67.94;102157.06;4826190;29;20081;-82
2022/08/29 06:27:12;;;;;;;2.35;2.25;;;19.40;99.90;;;19.60;67.63;102142.84;4825841;29;20026;-81
2022/08/29 06:29:40;;;;;;;2.35;2.25;;;19.40;99.90;;;19.73;67.17;102172.09;4825807;29;20043;-82
2022/08/29 06:32:10;;;;;;;;;;;19.50;99.90;;;19.76;67.24;102163.97;4826124;29;20046;-82
2022/08/29 06:34:41;;;;;;;2.30;2.20;;;19.50;99.90;;;19.83;67.07;102153.97;4825729;29;20370;-82
2022/08/29 06:37:09;;;;;;;2.47;2.38;;;19.60;99.90;;;19.91;66.65;102173.50;4826126;29;20134;-83
2022/08/29 06:39:38;;;;;;;2.38;2.28;;;19.60;99.90;;;19.94;66.47;102172.56;4825042;29;20074;-82
2022/08/29 06:42:07;;;;;;;2.45;2.35;;;19.70;99.90;;;20.03;66.10;102181.31;4825847;29;20423;-82
2022/08/29 06:44:35;;;;;;;2.30;2.20;;;19.70;99.90;;;19.88;65.86;102162.81;4825499;29;20062;-83
2022/08/29 06:47:08;;;;;;;2.40;2.30;;;19.70;99.90;;;19.96;66.19;102179.66;4825641;29;20442;-82
2022/08/29 06:49:36;;;;;;;2.28;2.17;;;19.60;99.90;;;19.82;65.99;102183.56;4825782;29;20042;-82
2022/08/29 06:52:06;;;;;;;2.50;2.40;;;19.50;99.90;;;19.52;67.52;102185.06;4825390;29;20094;-82
2022/08/29 06:54:34;;;;;;;2.88;2.78;;;19.20;99.90;;;19.41;66.96;102165.63;4825481;29;20085;-82
2022/08/29 06:57:03;;;;;;;3.42;3.28;;;19.00;99.90;;;19.21;67.48;102179.41;4825644;29;20421;-82
2022/08/29 06:59:31;;;;;;;2.35;2.25;;;18.80;99.90;;;19.49;66.24;102171.72;4825787;29;20115;-83
2022/08/29 07:02:00;;;;;;;3.28;3.08;;;19.00;99.90;;;19.56;65.95;102168.88;4824643;29;20061;-83
2022/08/29 07:04:29;;;;;;;2.50;2.40;;;19.10;99.90;;;19.34;65.25;102156.81;4825379;29;20058;-82
2022/08/29 07:06:58;;;;;;;2.70;2.60;;;19.00;99.90;;;19.56;65.80;102170.69;4825359;29;20129;-82
2022/08/29 07:09:29;;;;;;;2.55;2.45;;;19.10;99.90;;;19.69;64.93;102177.56;4825167;29;20046;-83
2022/08/29 07:11:58;;;;;;;2.45;2.35;;;19.20;99.90;;;19.76;64.79;102184.59;4825076;29;20112;-82
2022/08/29 07:14:26;;;;;;;2.97;2.88;;;19.20;99.90;;;19.72;62.04;102180.19;4825314;29;20043;-82
2022/08/29 07:16:55;;;;;;;2.42;2.33;;;19.30;99.90;;;19.96;62.10;102193.06;4824866;29;20081;-82
2022/08/29 07:19:23;;;;;;;2.90;2.80;;;19.50;99.90;;;19.97;58.80;102194.88;4825158;29;20103;-82
2022/08/29 07:21:53;;;;;;;2.42;2.33;;;19.60;99.90;;;19.82;60.17;102154.91;4824875;29;20515;-82
2022/08/29 07:24:25;;;;;;;2.63;2.53;;;19.50;99.90;;;20.10;60.19;102179.34;4825257;29;20198;-83
2022/08/29 07:26:54;;;;;;;2.60;2.50;;;19.60;99.90;;;20.32;60.43;102183.34;4825436;29;20050;-82
2022/08/29 07:29:23;;;;;;;2.60;2.50;;;19.90;99.90;;;20.49;58.86;102184.72;4825025;29;20088;-76
2022/08/29 07:31:51;;;;;;;2.60;2.50;;;20.10;99.90;;;20.33;57.22;102185.09;4824887;29;20300;-77
2022/08/29 07:34:20;;;;;;;2.30;2.20;;;20.00;99.90;;;20.42;57.02;102190.28;4824670;29;20129;-82
2022/08/29 07:36:49;;;;;;;2.45;2.35;;;20.00;99.90;;;20.59;56.21;102188.06;4824708;29;20107;-88
2022/08/29 07:39:19;;;;;;;2.47;2.38;;;20.20;99.90;;;20.67;55.97;102186.94;4824726;29;20217;-87
2022/08/29 07:41:51;;;;;;;2.95;2.85;;;20.30;99.90;;;20.55;55.26;102189.94;4825115;29;20085;-87
2022/08/29 07:44:20;;;;;;;2.83;2.72;;;20.20;99.90;;;20.60;55.53;102189.81;4825184;29;20130;-82
2022/08/29 07:46:49;;;;;;;2.33;2.23;;;20.20;99.90;;;20.71;54.77;102184.19;4824759;29;20069;-82
2022/08/29 07:49:17;;;;;;;2.58;2.47;;;20.30;99.90;;;20.73;55.26;102190.41;4824898;29;20050;-81
2022/08/29 07:51:46;;;;;;;3.03;2.92;;;20.40;99.90;;;20.76;55.87;102182.25;4823866;29;20047;-81
2022/08/29 07:54:15;;;;;;;2.60;2.50;;;20.40;99.90;;;20.60;54.12;102184.44;4824823;29;20061;-81
2022/08/29 07:56:45;;;;;;;2.85;2.75;;;20.30;99.90;;;20.69;54.69;102182.41;4824660;29;20058;-82
2022/08/29 07:59:14;;;;;;;2.78;2.67;;;20.30;99.90;;;20.77;54.97;102179.50;4824491;29;20139;-73
2022/08/29 08:01:44;;;;;;;2.85;2.75;;;20.30;99.90;;;20.92;54.51;102181.84;4824829;29;20089;-73
2022/08/29 08:04:13;;;;;;;2.60;2.50;;;20.50;99.90;;;21.10;54.76;102177.81;4824590;29;20073;-74
2022/08/29 08:06:43;;;;;;;2.55;2.45;;;20.70;99.90;;;21.26;55.41;102189.91;4824654;29;20107;-73
2022/08/29 08:09:13;;;;;;;2.80;2.70;;;20.80;99.90;;;21.41;55.83;102184.09;4824458;29;20054;-74
2022/08/29 08:11:42;;;;;;;2.38;2.28;;;21.00;99.90;;;21.56;55.98;102189.94;4824130;29;20046;-73
2022/08/29 08:14:12;;;;;;;2.42;2.33;;;21.20;99.90;;;21.62;54.94;102188.91;4824334;29;20463;-73
2022/08/29 08:16:42;;;;;;;2.40;2.30;;;21.40;99.90;;;21.72;53.02;102190.38;4824343;29;20481;-74
2022/08/29 08:19:13;;;;;;;2.63;2.53;;;21.50;99.90;;;21.91;52.31;102188.06;4824091;29;20055;-74
2022/08/29 08:21:43;;;;;;;2.50;2.40;;;21.70;99.90;;;21.83;51.95;102174.81;4824216;29;20047;-73
2022/08/29 08:24:17;;;;;;;2.58;2.47;;;21.60;99.90;;;22.05;52.08;102184.00;4822940;29;20457;-74
2022/08/29 08:26:48;;;;;;;2.58;2.47;;;21.80;99.90;;;22.06;52.98;102166.91;4823928;29;20057;-74
2022/08/29 08:29:17;;;;;;;2.50;2.40;;;21.90;99.90;;;22.26;51.33;102182.47;4824030;29;20113;-74
2022/08/29 08:31:49;;;;;;;2.25;2.15;;;22.00;99.90;;;22.29;51.10;102191.34;4823805;29;20046;-74
2022/08/29 08:34:19;;;;;;;2.28;2.17;;;22.00;99.90;;;21.91;52.31;102204.25;4824409;29;20056;-74
2022/08/29 08:36:47;;;;;;;2.40;2.30;;;21.70;99.90;;;22.19;51.93;102189.84;4823799;29;20045;-74
2022/08/29 08:39:15;;;;;;;2.40;2.30;;;21.90;99.90;;;22.38;51.08;102200.94;4823651;29;20486;-74
2022/08/29 08:41:57;;;;;;;2.70;2.60;;;22.00;99.90;;;22.26;50.89;102194.13;4823985;29;20050;-73
2022/08/29 08:45:09;;;;;;;2.00;1.90;;;22.00;99.90;;;22.26;50.25;102204.03;4823650;29;20485;-74
2022/08/29 08:47:44;;;;;;;2.40;2.30;;;22.00;99.90;;;22.10;50.59;102183.88;4823968;29;20054;-74
2022/08/29 08:50:20;;;;;;;2.42;2.33;;;21.90;99.90;;;22.18;50.41;102209.66;4823672;29;20046;-74
2022/08/29 08:52:55;;;;;;;2.42;2.33;;;21.90;99.90;;;22.20;51.41;102207.78;4823803;29;20464;-74
2022/08/29 08:55:34;;;;;;;2.38;2.28;;;21.90;99.90;;;22.41;51.28;102203.56;4823938;29;20110;-74
2022/08/29 08:58:12;;;;;;;2.03;1.92;;;22.10;99.90;;;22.53;50.78;102210.38;4824058;29;20134;-74
2022/08/29 09:00:45;;;;;;;2.15;2.05;;;22.20;99.90;;;21.80;51.00;102204.53;4823583;29;20137;-74
2022/08/29 09:03:47;;;;;;;2.40;2.30;;;21.70;99.90;;;21.26;52.78;102203.38;4826036;29;20425;-73
2022/08/29 09:06:32;;;;;;;2.30;2.20;;;21.00;99.90;;;21.80;52.32;102206.31;4816069;29;20089;-73
2022/08/29 09:09:12;;;;;;;2.60;2.50;;;21.40;99.90;;;21.97;51.50;102201.38;4827096;29;20050;-73
2022/08/29 09:11:56;;;;;;;2.42;2.33;;;21.60;99.90;;;22.18;51.17;102206.94;4827388;29;20050;-73
2022/08/29 09:14:45;;;;;;;2.08;1.98;;;21.80;99.90;;;21.88;51.27;102207.91;4826980;29;20111;-75
2022/08/29 09:17:20;;;;;;;2.50;2.40;;;21.60;99.90;;;22.24;51.60;102205.91;4827246;29;20066;-74
2022/08/29 09:19:51;;;;;;;2.95;2.75;;;21.90;99.90;;;21.48;52.11;102215.31;4827126;29;20058;-74
2022/08/29 09:22:26;;;;;;;3.28;2.65;;;21.40;99.90;;;21.88;51.61;102213.28;4827035;29;20058;-74
2022/08/29 09:25:04;;;;;;;2.10;2.00;;;21.50;99.90;;;21.70;52.92;102208.38;4826831;29;20085;-74
2022/08/29 09:27:36;;;;;;;2.22;2.13;;;21.40;99.90;;;21.70;52.11;102207.53;4827018;29;20183;-74
2022/08/29 09:30:10;;;;;;;2.90;2.80;;;21.30;99.90;;;21.25;53.51;102212.38;4826766;29;20046;-74
2022/08/29 09:33:01;;;;;;;2.50;2.40;;;21.00;99.90;;;20.96;53.84;102196.09;4826851;29;20077;-74
2022/08/29 09:35:38;;;;;;;;;;;20.60;99.90;;;21.48;53.85;102212.63;4827125;29;20497;-74
2022/08/29 09:38:10;;;;;;;2.58;2.47;;;21.00;99.90;;;21.37;51.93;102177.03;4826874;29;19929;-74
2022/08/29 09:40:51;;;;;;;2.35;2.25;;;21.20;99.90;;;21.81;53.15;102205.44;4826593;29;20055;-73
2022/08/29 09:43:26;;;;;;;3.78;2.90;;;21.40;99.90;;;21.16;53.27;102205.44;4826558;29;20078;-74
2022/08/29 09:46:16;;;;;;;3.30;3.10;;;21.10;99.90;;;20.61;54.99;102207.72;4826477;29;20512;-74
2022/08/29 09:48:47;;;;;;;2.40;2.30;;;20.40;99.90;;;20.45;55.36;102198.25;4826842;29;20054;-73
2022/08/29 09:51:25;;;;;;;2.50;2.40;;;20.10;99.90;;;20.87;55.22;102207.06;4826787;29;20137;-73
2022/08/29 09:53:55;;;;;;;2.25;2.15;;;20.40;99.90;;;21.21;54.21;102208.91;4825409;29;20454;-73
2022/08/29 09:56:27;;;;;;;3.22;3.00;;;20.70;99.90;;;21.33;52.85;102207.69;4827028;29;20081;-73
2022/08/29 09:59:03;;;;;;;3.40;3.20;;;21.00;99.90;;;20.81;53.81;102204.56;4826615;29;20047;-74
2022/08/29 10:01:32;;;;;;;2.72;2.63;;;20.70;99.90;;;20.97;53.59;102205.91;4826996;29;20054;-74
2022/08/29 10:04:07;;;;;;;3.00;2.80;;;20.70;99.90;;;20.90;53.37;102213.28;4826486;29;20082;-73
2022/08/29 10:06:40;;;;;;;2.70;2.60;;;20.60;99.90;;;20.92;53.94;102215.91;4826228;29;20137;-74
2022/08/29 10:09:28;;;;;;;2.83;2.72;;;20.60;99.90;;;21.07;53.99;102216.44;4826064;29;20521;-74
2022/08/29 10:12:03;;;;;;;2.42;2.33;;;20.60;99.90;;;21.40;54.18;102209.25;4826064;29;20062;-74
2022/08/29 10:14:37;;;;;;;2.88;2.78;;;20.90;99.90;;;21.56;54.44;102211.47;4825061;29;20129;-73
2022/08/29 10:20:05;;;;;;;2.42;2.33;;;21.40;99.90;;;21.89;53.42;102214.16;4826264;29;20054;-74
2022/08/29 10:22:42;;;;;;;2.75;2.65;;;21.60;99.90;;;21.86;53.61;102172.03;4825898;29;20122;-74
2022/08/29 10:25:19;;;;;;;2.53;2.42;;;21.70;99.90;;;22.34;53.04;102215.44;4826380;29;20050;-74
2022/08/29 10:27:54;;;;;;;2.53;2.42;;;22.00;99.90;;;22.47;51.48;102211.44;4826078;29;20081;-74
2022/08/29 10:30:28;;;;;;;12.50;11.43;;;22.20;99.90;;;22.33;50.91;102205.59;4825717;29;20125;-74
2022/08/29 10:33:18;;;;;;;2.53;2.42;;;22.10;99.90;;;22.51;50.19;102204.13;4825524;29;20103;-74
2022/08/29 10:35:55;;;;;;;2.58;2.47;;;22.30;99.90;;;22.33;52.38;102195.72;4825926;29;20050;-73